Stations météo

réclame
Mon MeteoGroup
Sant Jaume, Espagne (8240): Température de l'air & dewpoint: 05.12.2018 17:00:00 - 11.12.2018 17:00:00 (CET)Sant Jaume, Espagne (8240): Vitesse du vent & gusts: 05.12.2018 17:00:00 - 11.12.2018 17:00:00 (CET)Sant Jaume, Espagne (8240): Direction du vent: 05.12.2018 17:00:00 - 11.12.2018 17:00:00 (CET)Sant Jaume, Espagne (8240): Quantités de précipitations: 05.12.2018 17:00:00 - 11.12.2018 17:00:00 (CET)
Date & Time tt [°C] td [°C] ff [km/h] ff [knt] fx [km/h] fx [knt] dd rr [mm]
11.12.2018 17:00:00 - - - - - - - -
11.12.2018 16:00:00 14,5 9,9 5 3 8 5 SW 0,0
11.12.2018 15:00:00 15,1 10,0 1 1 5 3 S 0,0
11.12.2018 14:00:00 13,7 10,3 1 1 9 5 NNW 0,0
11.12.2018 13:00:00 12,4 9,2 4 2 9 5 NNW -
11.12.2018 12:00:00 11,3 8,4 3 1 8 5 NW 0,0
11.12.2018 11:00:00 10,4 7,7 2 1 6 3 NW 0,0
11.12.2018 10:00:00 8,8 7,6 3 2 9 5 NW 0,0
11.12.2018 09:00:00 7,7 7,1 3 1 6 3 NNW 0,0
11.12.2018 08:00:00 6,7 6,1 2 1 5 3 NW 0,0
11.12.2018 07:00:00 7,1 6,5 0 0 5 3 WNW -
11.12.2018 06:00:00 7,9 7,3 3 1 9 5 WNW 0,0
11.12.2018 05:00:00 8,4 7,4 2 1 7 4 NW 0,0
11.12.2018 04:00:00 8,3 7,3 2 1 6 4 NW 0,0
11.12.2018 03:00:00 8,8 7,6 1 1 6 3 NW 0,0
11.12.2018 02:00:00 9,6 8,4 4 2 8 4 WSW 0,0
11.12.2018 01:00:00 10,0 8,4 2 1 6 4 W -
11.12.2018 00:00:00 10,4 8,1 1 0 5 3 NNW 0,0
10.12.2018 23:00:00 10,9 8,5 0 0 6 3 NW 0,0
10.12.2018 22:00:00 11,1 8,8 1 1 6 4 WNW 0,0
10.12.2018 21:00:00 11,7 8,9 4 2 6 3 N 0,0
10.12.2018 20:00:00 12,2 9,2 3 2 8 4 NNW 0,0
10.12.2018 19:00:00 12,4 8,3 0 0 4 2 N -
10.12.2018 18:00:00 12,5 8,0 0 0 11 6 N 0,0
10.12.2018 17:00:00 14,2 7,7 7 4 12 7 NNW 0,0
10.12.2018 16:00:00 15,0 7,3 6 4 17 9 N 0,0
10.12.2018 15:00:00 16,2 7,4 2 1 12 7 N 0,0
10.12.2018 14:00:00 17,0 7,6 5 3 19 10 N 0,0
10.12.2018 13:00:00 16,7 6,5 5 3 20 11 NNW -
10.12.2018 12:00:00 15,3 6,5 11 6 21 12 NNW 0,0
10.12.2018 11:00:00 15,0 7,3 8 5 23 13 N 0,0
10.12.2018 10:00:00 13,8 6,8 13 7 27 14 NNW 0,0
10.12.2018 09:00:00 12,8 6,4 16 9 28 15 NNW 0,0
10.12.2018 08:00:00 12,4 4,6 3 2 21 12 ENE 0,0
10.12.2018 07:00:00 12,2 5,3 9 5 27 15 WNW -
10.12.2018 06:00:00 13,0 5,5 19 10 40 22 NNW 0,0
10.12.2018 05:00:00 13,4 5,6 15 8 57 31 NNW 0,0
10.12.2018 04:00:00 14,0 5,6 24 13 49 26 NW 0,0
10.12.2018 03:00:00 13,9 5,0 16 8 44 24 WNW 0,0
10.12.2018 02:00:00 14,0 5,6 21 11 64 34 WNW 0,0
10.12.2018 01:00:00 14,1 5,9 24 13 69 37 NW -
10.12.2018 00:00:00 14,5 6,4 23 13 76 41 NW 0,0
09.12.2018 23:00:00 14,5 5,8 26 14 72 39 NW 0,0
09.12.2018 22:00:00 15,0 6,1 29 15 64 34 NW 0,0
09.12.2018 21:00:00 15,1 5,8 26 14 61 33 NW 0,0
09.12.2018 20:00:00 16,1 5,1 16 9 42 23 NW 0,0
09.12.2018 19:00:00 17,2 4,8 12 6 33 18 W -
09.12.2018 18:00:00 18,0 4,8 19 10 33 18 WNW 0,0
09.12.2018 17:00:00 18,8 5,0 4 2 23 12 N 0,0
09.12.2018 16:00:00 18,1 5,6 13 7 39 21 WNW 0,0
09.12.2018 15:00:00 19,0 5,8 21 11 43 23 WNW 0,0
09.12.2018 14:00:00 20,4 7,0 15 8 32 18 WNW 0,0
09.12.2018 13:00:00 19,5 6,5 10 5 37 20 NW -
09.12.2018 12:00:00 19,4 5,5 18 10 41 22 W 0,0
09.12.2018 11:00:00 18,6 5,5 10 5 59 32 WNW 0,0
09.12.2018 10:00:00 17,9 5,8 26 14 50 27 WNW 0,0
09.12.2018 09:00:00 17,1 5,9 16 9 34 19 W 0,0
09.12.2018 08:00:00 16,7 6,2 14 8 40 22 NNW 0,0
09.12.2018 07:00:00 15,2 5,9 13 7 29 15 W -
09.12.2018 06:00:00 14,6 6,7 10 5 26 14 W 0,0
09.12.2018 05:00:00 11,9 9,7 8 4 12 6 WSW 0,0
09.12.2018 04:00:00 11,5 9,9 4 2 11 6 SW 0,0
09.12.2018 03:00:00 10,7 9,3 5 3 13 7 W 0,0
09.12.2018 02:00:00 9,3 8,1 3 2 11 6 S 0,0
09.12.2018 01:00:00 10,1 8,7 3 2 8 4 NW -
09.12.2018 00:00:00 9,8 8,1 0 0 6 3 N 0,0
08.12.2018 23:00:00 10,8 8,9 2 1 16 9 WNW 0,0
08.12.2018 22:00:00 12,4 10,6 6 3 10 6 W 0,0
08.12.2018 21:00:00 13,9 12,1 8 4 13 7 WSW 0,0
08.12.2018 20:00:00 12,6 9,4 10 5 12 7 S 0,0
08.12.2018 19:00:00 12,6 9,0 7 4 11 6 SSW -
08.12.2018 18:00:00 14,0 6,1 0 0 13 7 N 0,0
08.12.2018 17:00:00 15,6 6,1 4 2 26 14 NW 0,0
08.12.2018 16:00:00 16,4 6,5 9 5 27 14 NNW 0,0
08.12.2018 15:00:00 16,1 5,6 14 8 32 18 NNW 0,0
08.12.2018 14:00:00 16,7 6,8 8 5 42 23 NW 0,0
08.12.2018 13:00:00 16,0 5,9 18 10 32 18 NNW -
08.12.2018 12:00:00 15,4 5,9 16 9 37 20 NNW 0,0
08.12.2018 11:00:00 14,8 6,1 11 6 35 19 NNW 0,0
08.12.2018 10:00:00 14,6 5,6 23 13 39 21 NNW 0,0
08.12.2018 09:00:00 13,9 5,3 13 7 48 26 NNW 0,0
08.12.2018 08:00:00 13,4 5,8 22 12 46 25 NW 0,0
08.12.2018 07:00:00 13,9 6,5 11 6 43 23 N -
08.12.2018 06:00:00 13,4 5,8 12 7 48 26 NW 0,0
08.12.2018 05:00:00 14,0 5,9 17 9 50 27 NW 0,0
08.12.2018 04:00:00 14,5 6,4 20 11 51 28 NW 0,0
08.12.2018 03:00:00 15,2 6,7 29 15 60 32 WNW 0,0
08.12.2018 02:00:00 15,6 6,5 9 5 36 19 W 0,0
08.12.2018 01:00:00 15,6 6,8 14 8 48 26 WNW -
08.12.2018 00:00:00 15,6 7,4 21 12 47 25 NW 0,0
07.12.2018 23:00:00 15,9 7,7 19 10 42 23 WNW 0,0
07.12.2018 22:00:00 15,7 8,0 8 5 29 16 W 0,0
07.12.2018 21:00:00 13,7 12,1 12 6 23 12 WSW 0,0
07.12.2018 20:00:00 13,0 11,8 3 2 10 6 NNE 0,0
07.12.2018 19:00:00 13,2 11,9 10 6 13 7 SSW -
07.12.2018 18:00:00 13,7 11,4 5 3 8 4 WSW 0,0
07.12.2018 17:00:00 14,9 10,6 3 1 15 8 SW 0,0
07.12.2018 16:00:00 15,4 9,3 12 6 16 9 S 0,0
07.12.2018 15:00:00 16,5 8,7 6 3 11 6 S 0,0
07.12.2018 14:00:00 16,3 7,3 5 3 9 5 S 0,0
07.12.2018 13:00:00 15,9 7,7 0 0 10 6 NW -
07.12.2018 12:00:00 14,5 8,3 1 1 5 3 W 0,0
07.12.2018 11:00:00 13,3 8,4 0 0 7 4 N 0,0
07.12.2018 10:00:00 12,1 8,3 1 1 9 5 W 0,0
07.12.2018 09:00:00 10,0 8,1 3 2 8 4 WNW 0,0
07.12.2018 08:00:00 8,5 7,1 0 0 4 2 N 0,0
07.12.2018 07:00:00 8,9 6,8 0 0 4 2 WNW -
07.12.2018 06:00:00 9,3 7,1 0 0 4 2 WNW 0,0
07.12.2018 05:00:00 10,3 7,4 2 1 6 4 W 0,0
07.12.2018 04:00:00 11,7 7,3 2 1 14 8 NNW 0,0
07.12.2018 03:00:00 12,5 8,0 8 4 18 10 NW 0,0
07.12.2018 02:00:00 12,8 7,8 8 5 13 7 N 0,0
07.12.2018 01:00:00 12,6 8,3 4 2 17 9 NW -
07.12.2018 00:00:00 12,1 9,8 5 3 8 5 N 0,0
06.12.2018 23:00:00 12,3 10,9 1 1 14 8 NW 0,0
06.12.2018 22:00:00 12,9 11,8 5 3 8 5 WNW 0,0
06.12.2018 21:00:00 13,6 12,3 5 3 15 8 SW 0,0
06.12.2018 20:00:00 14,2 13,1 7 4 15 8 WSW 0,0
06.12.2018 19:00:00 14,6 13,4 3 1 8 5 WSW -
06.12.2018 18:00:00 15,0 13,2 5 3 12 6 SW 0,0
06.12.2018 17:00:00 16,1 13,9 10 5 16 9 SSW 0,0
06.12.2018 16:00:00 17,1 13,1 11 6 17 9 SSW 0,0
06.12.2018 15:00:00 18,2 11,2 9 5 17 9 S 0,0
06.12.2018 14:00:00 18,7 11,8 1 0 11 6 E 0,0
06.12.2018 13:00:00 18,3 10,9 7 4 16 8 N -
06.12.2018 12:00:00 18,2 10,5 1 1 8 4 SW 0,0
06.12.2018 11:00:00 15,6 11,2 5 3 25 13 NNW 0,0
06.12.2018 10:00:00 13,1 9,3 18 10 30 16 N 0,0
06.12.2018 09:00:00 13,0 9,4 22 12 66 36 N 0,0
06.12.2018 08:00:00 12,3 9,2 13 7 29 16 N 0,0
06.12.2018 07:00:00 12,3 8,9 16 9 31 17 N -
06.12.2018 06:00:00 12,0 8,8 13 7 27 15 N 0,0
06.12.2018 05:00:00 12,5 8,5 7 4 26 14 NNW 0,0
06.12.2018 04:00:00 11,3 8,5 6 3 24 13 NE 0,0
06.12.2018 03:00:00 11,1 8,7 8 5 25 14 NNW 0,0
06.12.2018 02:00:00 11,3 9,4 14 8 28 15 N 0,0
06.12.2018 01:00:00 10,6 10,0 4 2 13 7 NE -
06.12.2018 00:00:00 11,0 10,4 1 1 10 6 W 0,0
05.12.2018 23:00:00 10,9 10,3 4 2 10 5 W 0,0
05.12.2018 22:00:00 11,2 10,5 4 2 9 5 SSW 0,0
05.12.2018 21:00:00 12,1 11,4 6 3 9 5 SW 0,0
05.12.2018 20:00:00 13,9 13,3 5 3 13 7 W 0,0
05.12.2018 19:00:00 14,3 13,7 9 5 14 8 SW -
05.12.2018 18:00:00 14,9 13,9 8 5 13 7 SSW 0,0
05.12.2018 17:00:00 16,0 14,5 11 6 14 8 SW 0,0

tt = Température de l'air
td = dewpoint
ff = Vitesse du vent
fx = gusts
dd = Direction du vent
rr = Quantités de précipitations

stations d'obs. à proximité